Time;durP1;ratioP1;P1;durP2;ratioP2;P2;SDS_P1;SDS_P2;PMS_P1;PMS_P2;Temp;Humidity;BMP_temperature;BMP_pressure;BME280_temperature;BME280_humidity;BME280_pressure;Samples;Min_cycle;Max_cycle;Signal;HPM_P1;HPM_P2
2021/09/29 00:01:38;;;;;;;6.10;2.40;;;;;;;11.99;100.00;100915.22;5027212;28;20115;-73
2021/09/29 00:04:06;;;;;;;8.90;2.30;;;;;;;11.93;100.00;100905.16;5027741;28;20033;-73
2021/09/29 00:06:34;;;;;;;5.63;2.65;;;;;;;12.00;100.00;100902.66;5030419;28;20345;-73
2021/09/29 00:09:02;;;;;;;3.60;2.15;;;;;;;11.63;100.00;100906.69;5025046;28;20037;-72
2021/09/29 00:11:31;;;;;;;4.18;2.40;;;;;;;11.51;100.00;100906.16;5029673;28;20389;-73
2021/09/29 00:13:59;;;;;;;6.65;2.08;;;;;;;11.46;100.00;100895.16;5028299;28;20049;-73
2021/09/29 00:16:27;;;;;;;2.67;1.67;;;;;;;11.17;100.00;100900.00;5028772;28;20053;-73
2021/09/29 00:18:55;;;;;;;5.15;2.10;;;;;;;11.13;100.00;100903.16;5024068;28;20091;-73
2021/09/29 00:21:23;;;;;;;7.15;1.90;;;;;;;11.19;100.00;100886.44;5026281;28;20041;-73
2021/09/29 00:23:51;;;;;;;5.93;2.10;;;;;;;11.09;100.00;100894.63;5029550;28;20068;-73
2021/09/29 00:26:19;;;;;;;4.05;2.03;;;;;;;10.99;100.00;100892.09;5031014;28;20390;-73
2021/09/29 00:28:48;;;;;;;8.13;2.25;;;;;;;11.07;100.00;100898.44;5027262;28;20095;-73
2021/09/29 00:31:26;;;;;;;3.60;1.98;;;;;;;11.07;100.00;100888.63;5028705;28;20042;-73
2021/09/29 00:34:01;;;;;;;5.93;1.80;;;;;;;11.06;100.00;100886.94;5025788;28;20315;-73
2021/09/29 00:36:29;;;;;;;4.05;1.98;;;;;;;11.29;100.00;100875.59;5029556;28;20060;-73
2021/09/29 00:38:57;;;;;;;5.88;2.08;;;;;;;11.40;100.00;100872.59;5026542;28;20296;-72
2021/09/29 00:41:25;;;;;;;6.78;1.48;;;;;;;11.60;100.00;100859.72;5029737;28;20376;-72
2021/09/29 00:43:54;;;;;;;3.85;1.80;;;;;;;11.65;100.00;100861.88;5030088;28;20349;-72
2021/09/29 00:46:22;;;;;;;4.18;2.35;;;;;;;11.63;100.00;100859.38;5029226;28;20690;-72
2021/09/29 00:48:50;;;;;;;4.60;1.23;;;;;;;11.42;100.00;100856.38;5024380;28;20053;-72
2021/09/29 00:51:18;;;;;;;2.92;1.75;;;;;;;11.32;100.00;100848.53;5026162;28;20189;-72
2021/09/29 00:53:48;;;;;;;5.80;1.95;;;;;;;11.34;100.00;100846.50;5029638;28;20169;-73
2021/09/29 00:56:16;;;;;;;5.47;1.75;;;;;;;11.39;100.00;100844.19;5029834;28;20369;-72
2021/09/29 00:58:44;;;;;;;7.13;1.85;;;;;;;11.20;100.00;100840.84;5025297;28;20041;-72
2021/09/29 01:01:13;;;;;;;1.83;1.35;;;;;;;11.11;100.00;100836.47;5029047;28;20048;-73
2021/09/29 01:03:42;;;;;;;5.80;1.90;;;;;;;11.20;100.00;100837.34;5027911;28;20110;-73
2021/09/29 01:06:14;;;;;;;7.72;1.73;;;;;;;11.45;100.00;100840.81;5028291;28;20045;-73
2021/09/29 01:08:44;;;;;;;4.32;1.50;;;;;;;11.58;100.00;100823.44;5028195;28;20045;-74
2021/09/29 01:11:18;;;;;;;2.67;1.42;;;;;;;11.43;100.00;100831.31;5026815;28;20042;-73
2021/09/29 01:13:54;;;;;;;3.58;1.30;;;;;;;11.45;100.00;100832.81;5028392;28;20434;-73
2021/09/29 01:16:26;;;;;;;6.30;1.52;;;;;;;11.31;100.00;100828.13;5027984;28;20138;-72
2021/09/29 01:18:57;;;;;;;4.32;1.55;;;;;;;11.24;100.00;100830.66;5024950;28;20457;-72
2021/09/29 01:21:28;;;;;;;4.65;1.50;;;;;;;11.24;100.00;100822.66;5027818;28;20049;-73
2021/09/29 01:24:08;;;;;;;8.88;1.40;;;;;;;11.34;100.00;100820.63;5025531;28;20049;-73
2021/09/29 01:26:40;;;;;;;6.25;2.22;;;;;;;11.48;100.00;100815.59;5028788;28;20372;-73
2021/09/29 01:29:10;;;;;;;5.22;1.35;;;;;;;11.74;100.00;100809.19;5025929;28;20560;-73
2021/09/29 01:31:38;;;;;;;2.00;0.85;;;;;;;11.80;100.00;100808.53;5024452;28;20045;-73
2021/09/29 01:34:08;;;;;;;2.55;1.00;;;;;;;11.95;100.00;100804.16;5028135;28;20056;-73
2021/09/29 01:36:37;;;;;;;4.95;1.20;;;;;;;12.08;100.00;100797.41;5027655;28;20041;-73
2021/09/29 01:39:07;;;;;;;4.05;1.52;;;;;;;12.16;100.00;100802.72;5026820;28;20111;-73
2021/09/29 01:41:39;;;;;;;4.10;1.05;;;;;;;12.06;100.00;100797.59;5027519;28;20048;-73
2021/09/29 01:44:08;;;;;;;3.22;1.10;;;;;;;12.13;100.00;100803.91;5026060;28;20051;-73
2021/09/29 01:46:36;;;;;;;4.75;1.60;;;;;;;12.13;100.00;100803.09;5028238;28;20045;-72
2021/09/29 01:49:07;;;;;;;5.45;1.10;;;;;;;12.21;100.00;100800.38;5023064;28;20649;-73
2021/09/29 01:51:38;;;;;;;3.88;1.33;;;;;;;12.15;100.00;100790.34;5025349;28;20099;-73
2021/09/29 01:54:08;;;;;;;4.55;1.10;;;;;;;12.14;100.00;100799.41;5028657;28;20396;-73
2021/09/29 01:56:38;;;;;;;5.30;1.48;;;;;;;12.11;100.00;100789.88;5027784;28;20053;-73
2021/09/29 01:59:06;;;;;;;4.35;1.27;;;;;;;11.90;100.00;100793.09;5022097;28;20111;-73
2021/09/29 02:01:36;;;;;;;11.65;2.00;;;;;;;11.94;100.00;100789.09;5020752;28;20484;-73
2021/09/29 02:04:05;;;;;;;5.32;1.48;;;;;;;11.99;100.00;100781.41;5026983;28;20318;-74
2021/09/29 02:06:44;;;;;;;6.15;1.45;;;;;;;11.89;100.00;100791.41;5026918;28;20061;-73
2021/09/29 02:09:12;;;;;;;6.05;1.25;;;;;;;12.02;100.00;100782.88;5023645;28;20041;-73
2021/09/29 02:11:41;;;;;;;4.18;1.33;;;;;;;11.88;100.00;100779.06;5026040;28;20102;-73
2021/09/29 02:14:10;;;;;;;4.28;1.38;;;;;;;11.87;100.00;100766.69;5023894;28;20052;-74
2021/09/29 02:16:38;;;;;;;5.15;1.10;;;;;;;11.81;100.00;100784.28;5026130;28;20107;-73
2021/09/29 02:19:06;;;;;;;6.55;1.55;;;;;;;11.71;100.00;100773.75;5025181;28;20073;-73
2021/09/29 02:21:34;;;;;;;8.07;1.85;;;;;;;11.66;100.00;100769.94;5021792;28;20068;-74
2021/09/29 02:24:02;;;;;;;3.63;1.00;;;;;;;11.59;100.00;100772.44;5026998;28;20046;-74
2021/09/29 02:26:30;;;;;;;2.67;1.08;;;;;;;11.56;100.00;100777.31;5023356;28;20029;-74
2021/09/29 02:28:59;;;;;;;8.05;1.45;;;;;;;11.52;100.00;100769.66;5026148;28;20045;-73
2021/09/29 02:31:27;;;;;;;4.05;1.42;;;;;;;11.48;100.00;100764.78;5021893;28;20044;-71
2021/09/29 02:33:55;;;;;;;2.22;1.20;;;;;;;11.47;100.00;100771.16;5025700;28;20041;-70
2021/09/29 02:36:24;;;;;;;5.90;1.50;;;;;;;11.35;100.00;100766.16;5025417;28;20319;-70
2021/09/29 02:38:52;;;;;;;3.47;1.27;;;;;;;11.41;100.00;100770.00;5024681;28;20053;-70
2021/09/29 02:41:21;;;;;;;3.53;1.10;;;;;;;11.48;100.00;100767.47;5023416;28;20045;-70
2021/09/29 02:43:49;;;;;;;3.17;2.00;;;;;;;11.44;100.00;100771.47;5026922;28;20041;-70
2021/09/29 02:46:18;;;;;;;2.38;1.17;;;;;;;11.29;100.00;100774.84;5023644;28;20050;-70
2021/09/29 02:48:46;;;;;;;6.78;1.50;;;;;;;11.42;100.00;100776.16;5025024;28;20058;-70
2021/09/29 02:51:14;;;;;;;4.30;1.35;;;;;;;11.48;100.00;100780.81;5020172;28;20116;-70
2021/09/29 02:53:42;;;;;;;4.57;1.88;;;;;;;11.53;100.00;100781.16;5024764;28;20401;-70
2021/09/29 02:56:09;;;;;;;10.63;1.67;;;;;;;11.60;100.00;100781.31;5024069;28;20037;-70
2021/09/29 02:58:37;;;;;;;7.70;2.25;;;;;;;11.49;100.00;100785.19;5026345;28;20333;-71
2021/09/29 03:01:05;;;;;;;4.70;1.52;;;;;;;11.52;100.00;100787.50;5020431;28;20412;-71
2021/09/29 03:03:35;;;;;;;4.10;1.55;;;;;;;11.59;100.00;100783.16;5020734;28;20042;-71
2021/09/29 03:06:03;;;;;;;3.30;1.95;;;;;;;11.61;100.00;100780.31;5023813;28;20045;-71
2021/09/29 03:08:31;;;;;;;7.80;2.38;;;;;;;11.68;100.00;100782.13;5027779;28;20053;-72
2021/09/29 03:10:59;;;;;;;3.67;1.40;;;;;;;11.68;100.00;100779.47;5025651;28;20046;-72
2021/09/29 03:13:27;;;;;;;5.10;1.20;;;;;;;11.46;100.00;100780.19;5029465;28;20045;-72
2021/09/29 03:15:55;;;;;;;2.92;1.80;;;;;;;11.69;100.00;100780.28;5028017;28;20329;-71
2021/09/29 03:18:23;;;;;;;8.18;1.35;;;;;;;11.54;100.00;100777.50;5029036;28;20046;-70
2021/09/29 03:20:52;;;;;;;6.65;1.27;;;;;;;11.43;100.00;100772.50;5024179;28;20049;-70
2021/09/29 03:23:20;;;;;;;4.45;1.42;;;;;;;11.52;100.00;100776.81;5029003;28;20091;-70
2021/09/29 03:25:49;;;;;;;4.05;1.60;;;;;;;11.58;100.00;100772.63;5029291;28;20447;-73
2021/09/29 03:28:17;;;;;;;8.15;1.77;;;;;;;11.66;100.00;100767.25;5026128;28;20045;-73
2021/09/29 03:30:45;;;;;;;4.63;1.30;;;;;;;11.66;100.00;100765.41;5025175;28;20076;-73
2021/09/29 03:33:13;;;;;;;3.80;1.20;;;;;;;11.62;100.00;100761.41;5024960;28;20140;-74
2021/09/29 03:35:42;;;;;;;4.38;1.40;;;;;;;11.57;100.00;100763.78;5028031;28;20049;-74
2021/09/29 03:38:11;;;;;;;2.75;1.02;;;;;;;11.67;100.00;100756.38;5026649;28;20350;-73
2021/09/29 03:40:39;;;;;;;9.38;1.67;;;;;;;11.65;100.00;100757.56;5026333;28;20046;-73
2021/09/29 03:43:07;;;;;;;8.60;1.63;;;;;;;11.80;100.00;100760.38;5029176;28;20095;-73
2021/09/29 03:45:36;;;;;;;4.93;1.40;;;;;;;11.81;100.00;100754.84;5027982;28;20065;-73
2021/09/29 03:48:04;;;;;;;3.60;1.35;;;;;;;11.74;100.00;100758.34;5028129;28;20493;-69
2021/09/29 03:50:32;;;;;;;4.35;1.70;;;;;;;11.73;100.00;100756.72;5026300;28;20045;-69
2021/09/29 03:53:00;;;;;;;2.85;1.48;;;;;;;11.56;100.00;100746.06;5026759;28;20057;-69
2021/09/29 03:55:30;;;;;;;5.30;1.58;;;;;;;11.52;100.00;100755.41;5028850;28;20042;-69
2021/09/29 03:57:57;;;;;;;4.35;1.45;;;;;;;11.52;100.00;100764.28;5026033;28;20038;-70
2021/09/29 04:00:26;;;;;;;3.60;1.70;;;;;;;11.39;100.00;100755.94;5027158;28;20842;-70
2021/09/29 04:02:54;;;;;;;5.53;1.70;;;;;;;11.48;100.00;100759.44;5027077;28;20041;-68
2021/09/29 04:05:22;;;;;;;9.70;2.75;;;;;;;11.45;100.00;100754.44;5030853;28;20056;-68
2021/09/29 04:07:50;;;;;;;6.60;1.67;;;;;;;11.35;100.00;100758.16;5032037;28;20049;-68
2021/09/29 04:10:18;;;;;;;6.07;1.92;;;;;;;11.29;100.00;100752.63;5031283;28;20046;-67
2021/09/29 04:12:47;;;;;;;7.68;2.17;;;;;;;11.31;100.00;100754.13;5031766;28;20045;-66
2021/09/29 04:15:15;;;;;;;5.70;1.90;;;;;;;11.28;100.00;100757.13;5029259;28;20050;-67
2021/09/29 04:17:43;;;;;;;5.28;2.47;;;;;;;11.31;100.00;100756.81;5027688;28;20080;-66
2021/09/29 04:20:12;;;;;;;4.30;2.10;;;;;;;11.24;100.00;100755.81;5028572;28;20187;-66
2021/09/29 04:22:40;;;;;;;7.53;2.15;;;;;;;11.24;100.00;100753.16;5027185;28;20041;-66
2021/09/29 04:25:08;;;;;;;3.30;1.60;;;;;;;11.23;100.00;100751.47;5029166;28;20311;-66
2021/09/29 04:27:36;;;;;;;4.22;1.65;;;;;;;11.22;100.00;100755.13;5027076;28;20376;-66
2021/09/29 04:30:06;;;;;;;8.05;2.20;;;;;;;11.24;100.00;100754.97;5029164;28;20037;-66
2021/09/29 04:32:35;;;;;;;4.80;2.20;;;;;;;11.28;100.00;100762.47;5028557;28;20454;-67
2021/09/29 04:35:03;;;;;;;4.57;1.83;;;;;;;11.26;100.00;100759.16;5024622;28;20038;-70
2021/09/29 04:37:31;;;;;;;8.73;2.20;;;;;;;11.32;100.00;100769.16;5028696;28;20076;-70
2021/09/29 04:39:59;;;;;;;5.72;2.13;;;;;;;11.35;100.00;100776.00;5022693;28;20053;-69
2021/09/29 04:42:27;;;;;;;8.85;2.33;;;;;;;11.30;100.00;100776.53;5029463;28;20103;-68
2021/09/29 04:44:55;;;;;;;5.35;2.58;;;;;;;11.35;100.00;100784.03;5031106;28;20052;-68
2021/09/29 04:47:25;;;;;;;6.18;2.65;;;;;;;11.32;100.00;100795.06;5026854;28;20037;-68
2021/09/29 04:49:52;;;;;;;9.38;2.65;;;;;;;11.17;100.00;100809.09;5027558;28;20053;-69
2021/09/29 04:52:21;;;;;;;4.88;1.83;;;;;;;10.90;100.00;100788.91;5024053;28;20072;-68
2021/09/29 04:54:48;;;;;;;2.50;0.98;;;;;;;10.70;100.00;100785.69;5026848;28;20365;-68
2021/09/29 04:57:17;;;;;;;2.45;1.08;;;;;;;10.61;100.00;100790.16;5025928;28;20839;-68
2021/09/29 04:59:44;;;;;;;6.63;1.30;;;;;;;10.53;100.00;100784.81;5026684;28;20448;-67
2021/09/29 05:02:13;;;;;;;2.88;1.00;;;;;;;10.45;100.00;100788.31;5024709;28;20056;-67
2021/09/29 05:04:42;;;;;;;3.25;1.67;;;;;;;10.36;100.00;100793.78;5028941;28;20045;-67
2021/09/29 05:07:17;;;;;;;1.52;1.02;;;;;;;10.32;100.00;100793.25;5029087;28;20442;-67
2021/09/29 05:09:45;;;;;;;1.80;0.95;;;;;;;10.28;100.00;100795.41;5028699;28;20049;-68
2021/09/29 05:12:22;;;;;;;1.08;0.80;;;;;;;10.20;100.00;100787.38;5023678;28;20049;-68
2021/09/29 05:14:50;;;;;;;3.53;0.80;;;;;;;10.21;100.00;100774.88;5025038;28;20053;-68
2021/09/29 05:17:18;;;;;;;0.80;0.80;;;;;;;10.13;100.00;100779.16;5025049;28;20042;-68
2021/09/29 05:19:48;;;;;;;0.93;0.88;;;;;;;10.07;100.00;100766.47;5024560;28;20057;-68
2021/09/29 05:22:16;;;;;;;3.30;0.75;;;;;;;10.03;100.00;100758.97;5024253;28;20076;-68
2021/09/29 05:24:44;;;;;;;0.75;0.75;;;;;;;9.98;100.00;100762.94;5029265;28;20045;-68
2021/09/29 05:27:12;;;;;;;1.23;0.77;;;;;;;10.02;100.00;100781.28;5027175;28;20247;-68
2021/09/29 05:29:43;;;;;;;4.00;0.65;;;;;;;9.94;100.00;100784.78;5026285;28;20052;-68
2021/09/29 05:32:11;;;;;;;0.98;0.50;;;;;;;9.99;100.00;100788.63;5024397;28;20166;-68
2021/09/29 05:34:39;;;;;;;4.28;0.70;;;;;;;10.00;100.00;100790.28;5029728;28;20041;-68
2021/09/29 05:37:08;;;;;;;0.68;0.50;;;;;;;9.92;100.00;100802.75;5027415;28;20046;-68
2021/09/29 05:39:36;;;;;;;0.50;0.50;;;;;;;9.97;100.00;100803.13;5028675;28;20343;-68
2021/09/29 05:42:05;;;;;;;4.68;0.93;;;;;;;9.90;100.00;100808.25;5024939;28;20052;-68
2021/09/29 05:44:33;;;;;;;1.00;0.70;;;;;;;9.89;100.00;100811.91;5026575;28;20099;-68
2021/09/29 05:47:01;;;;;;;2.17;0.77;;;;;;;9.89;100.00;100821.75;5027588;28;20037;-68
2021/09/29 05:49:29;;;;;;;1.35;0.68;;;;;;;9.91;100.00;100833.94;5031098;28;20057;-68
2021/09/29 05:51:57;;;;;;;2.25;0.70;;;;;;;10.00;100.00;100837.47;5031070;28;20053;-68
2021/09/29 05:54:29;;;;;;;1.73;0.80;;;;;;;10.08;100.00;100809.97;5026613;28;20049;-68
2021/09/29 05:56:57;;;;;;;1.15;0.77;;;;;;;10.13;100.00;100794.34;5027199;28;20045;-68
2021/09/29 05:59:25;;;;;;;2.00;0.40;;;;;;;10.10;100.00;100768.81;5026743;28;20054;-69
2021/09/29 06:01:53;;;;;;;3.28;0.90;;;;;;;10.00;100.00;100752.94;5024942;28;20319;-68
2021/09/29 06:04:21;;;;;;;1.30;0.65;;;;;;;9.92;100.00;100771.59;5030567;28;20041;-68
2021/09/29 06:06:49;;;;;;;1.75;0.73;;;;;;;9.83;100.00;100789.38;5031401;28;20226;-67
2021/09/29 06:09:16;;;;;;;4.72;0.95;;;;;;;9.89;100.00;100793.22;5032470;28;20479;-68
2021/09/29 06:11:46;;;;;;;2.08;1.13;;;;;;;9.88;100.00;100823.59;5026747;28;20402;-68
2021/09/29 06:14:15;;;;;;;3.70;1.50;;;;;;;9.92;100.00;100822.28;5029157;28;20843;-68
2021/09/29 06:16:45;;;;;;;3.65;1.48;;;;;;;9.97;100.00;100835.97;5028458;28;20323;-68
2021/09/29 06:19:16;;;;;;;2.42;1.40;;;;;;;9.98;100.00;100836.81;5024776;28;20103;-68
2021/09/29 06:21:44;;;;;;;3.67;2.00;;;;;;;10.08;100.00;100839.34;5029172;28;20055;-67
2021/09/29 06:24:12;;;;;;;2.67;1.75;;;;;;;10.07;100.00;100837.69;5029000;28;21572;-67
2021/09/29 06:26:40;;;;;;;4.47;1.48;;;;;;;10.07;100.00;100838.50;5027495;28;20045;-67
2021/09/29 06:29:09;;;;;;;6.15;1.77;;;;;;;10.13;100.00;100859.22;5027684;28;20183;-67
2021/09/29 06:31:37;;;;;;;2.50;1.77;;;;;;;10.19;100.00;100860.41;5023744;28;20049;-67
2021/09/29 06:34:05;;;;;;;3.35;1.60;;;;;;;10.11;100.00;100850.53;5024338;28;20076;-67
2021/09/29 06:36:34;;;;;;;2.58;1.65;;;;;;;10.11;100.00;100858.53;5025226;28;20060;-67
2021/09/29 06:39:02;;;;;;;2.47;1.60;;;;;;;10.11;100.00;100871.88;5025898;28;20092;-67
2021/09/29 06:41:30;;;;;;;3.03;1.25;;;;;;;10.12;100.00;100873.56;5025373;28;20049;-67
2021/09/29 06:43:58;;;;;;;2.45;0.85;;;;;;;10.15;100.00;100872.41;5027675;28;20041;-68
2021/09/29 06:46:27;;;;;;;2.60;1.08;;;;;;;10.23;100.00;100877.78;5029848;28;20358;-68
2021/09/29 06:48:55;;;;;;;2.40;0.80;;;;;;;10.28;100.00;100864.81;5030395;28;20040;-67
2021/09/29 06:51:23;;;;;;;0.93;0.77;;;;;;;10.31;100.00;100867.16;5027093;28;20426;-67
2021/09/29 06:53:51;;;;;;;1.95;0.65;;;;;;;10.31;100.00;100858.31;5027249;28;20091;-67
2021/09/29 06:56:19;;;;;;;1.23;0.55;;;;;;;10.32;100.00;100868.81;5027863;28;20049;-67
2021/09/29 06:58:51;;;;;;;1.05;0.55;;;;;;;10.38;100.00;100866.56;5028961;28;20434;-67
2021/09/29 07:01:19;;;;;;;0.55;0.40;;;;;;;10.44;100.00;100866.72;5026818;28;20045;-67
2021/09/29 07:03:50;;;;;;;5.57;0.80;;;;;;;10.47;100.00;100865.56;5027937;28;20472;-67
2021/09/29 07:06:18;;;;;;;1.38;0.70;;;;;;;10.54;100.00;100866.59;5028186;28;20057;-67
2021/09/29 07:08:46;;;;;;;1.05;0.80;;;;;;;10.49;100.00;100874.28;5029459;28;20041;-67
2021/09/29 07:11:16;;;;;;;1.13;0.80;;;;;;;10.64;100.00;100877.97;5030601;28;20426;-67
2021/09/29 07:13:45;;;;;;;1.38;0.77;;;;;;;10.75;100.00;100879.50;5028530;28;20041;-67
2021/09/29 07:16:13;;;;;;;1.48;0.73;;;;;;;10.96;100.00;100884.41;5029418;28;20239;-67
2021/09/29 07:18:42;;;;;;;1.40;0.63;;;;;;;10.94;100.00;100886.41;5026865;28;20140;-67
2021/09/29 07:21:11;;;;;;;1.65;1.23;;;;;;;10.92;100.00;100899.09;5027141;28;20453;-67
2021/09/29 07:23:39;;;;;;;1.83;1.08;;;;;;;10.89;100.00;100895.91;5029020;28;20418;-67
2021/09/29 07:26:07;;;;;;;2.63;1.48;;;;;;;10.98;100.00;100910.97;5028157;28;20041;-67
2021/09/29 07:28:35;;;;;;;6.03;1.35;;;;;;;10.93;100.00;100907.94;5027632;28;20484;-67
2021/09/29 07:31:03;;;;;;;3.65;1.50;;;;;;;10.83;100.00;100910.75;5027868;28;20092;-67
2021/09/29 07:33:33;;;;;;;4.43;1.63;;;;;;;10.99;100.00;100913.47;5026426;28;20505;-67
2021/09/29 07:36:01;;;;;;;5.32;2.60;;;;;;;10.89;100.00;100917.28;5028103;28;20261;-67
2021/09/29 07:38:30;;;;;;;3.65;2.30;;;;;;;10.89;100.00;100920.81;5025929;28;20053;-67
2021/09/29 07:40:58;;;;;;;4.45;3.15;;;;;;;10.98;100.00;100911.78;5027288;28;20484;-67
2021/09/29 07:43:27;;;;;;;5.53;3.60;;;;;;;11.11;100.00;100926.53;5026769;28;20103;-67
2021/09/29 07:45:54;;;;;;;7.32;3.45;;;;;;;11.10;100.00;100924.84;5027790;28;20095;-67
2021/09/29 07:48:22;;;;;;;5.60;3.20;;;;;;;11.20;100.00;100934.41;5027435;28;20038;-67
2021/09/29 07:50:50;;;;;;;7.75;3.83;;;;;;;11.21;100.00;100935.22;5026199;28;20049;-68
2021/09/29 07:53:21;;;;;;;5.10;3.22;;;;;;;11.16;100.00;100930.38;5026372;28;20042;-67
2021/09/29 07:55:50;;;;;;;4.43;2.63;;;;;;;11.32;100.00;100939.44;5025625;28;20464;-68
2021/09/29 07:58:18;;;;;;;4.03;2.40;;;;;;;11.36;100.00;100936.25;5027539;28;20264;-67
2021/09/29 08:00:46;;;;;;;4.05;2.95;;;;;;;11.44;100.00;100939.94;5026279;28;20437;-70
2021/09/29 08:03:14;;;;;;;4.93;2.63;;;;;;;11.59;100.00;100945.47;5023484;28;20048;-70
2021/09/29 08:05:42;;;;;;;3.50;2.10;;;;;;;11.66;100.00;100943.81;5028506;28;20446;-69
2021/09/29 08:08:10;;;;;;;5.55;2.20;;;;;;;11.89;100.00;100946.63;5025364;28;20045;-70
2021/09/29 08:10:38;;;;;;;3.95;2.83;;;;;;;11.95;100.00;100934.44;5025336;28;20046;-70
2021/09/29 08:13:08;;;;;;;3.22;2.28;;;;;;;12.12;100.00;100946.81;5026841;28;20433;-70
2021/09/29 08:15:36;;;;;;;3.88;2.17;;;;;;;12.12;100.00;100951.31;5025551;28;20377;-70
2021/09/29 08:18:04;;;;;;;2.83;2.08;;;;;;;12.18;100.00;100945.28;5024868;28;20084;-69
2021/09/29 08:20:34;;;;;;;3.50;2.20;;;;;;;12.23;100.00;100956.31;5024711;28;20349;-74
2021/09/29 08:23:05;;;;;;;4.25;1.98;;;;;;;12.39;100.00;100952.78;5027589;28;20046;-72
2021/09/29 08:28:35;;;;;;;4.78;2.08;;;;;;;12.10;100.00;100964.03;5025143;28;20236;-72
2021/09/29 08:31:09;;;;;;;5.72;2.35;;;;;;;12.20;100.00;100975.41;5025229;28;20418;-74
2021/09/29 08:33:59;;;;;;;5.03;2.40;;;;;;;11.96;100.00;100973.59;5027020;28;20156;-68
2021/09/29 08:36:33;;;;;;;2.88;1.85;;;;;;;12.22;100.00;100978.75;5030689;28;20045;-68
2021/09/29 08:39:05;;;;;;;2.85;2.03;;;;;;;12.13;100.00;100966.38;5032867;28;20029;-69
2021/09/29 08:41:46;;;;;;;4.28;2.20;;;;;;;12.37;100.00;100974.34;5022639;28;20037;-68
2021/09/29 08:44:20;;;;;;;3.05;2.25;;;;;;;12.14;100.00;100981.44;5026816;28;20453;-70
2021/09/29 08:47:03;;;;;;;5.47;1.98;;;;;;;12.32;100.00;100990.13;5028694;28;20440;-70
2021/09/29 08:49:40;;;;;;;7.20;2.05;;;;;;;12.68;100.00;100989.66;5025378;28;20103;-71
2021/09/29 09:17:36;;;;;;;4.93;2.03;;;;;;;13.31;100.00;100995.09;5025654;28;20344;-70
2021/09/29 09:20:17;;;;;;;2.92;1.60;;;;;;;13.20;100.00;100982.91;5030003;28;20786;-73
2021/09/29 09:22:55;;;;;;;1.55;1.45;;;;;;;13.01;100.00;101008.31;5027920;28;20686;-71
2021/09/29 09:25:34;;;;;;;1.30;1.20;;;;;;;13.76;100.00;101004.22;5028683;28;20048;-71
2021/09/29 09:28:04;;;;;;;3.40;1.70;;;;;;;13.27;100.00;100993.78;5026769;28;20448;-71
2021/09/29 09:30:33;;;;;;;1.52;1.25;;;;;;;13.75;100.00;101005.22;5024341;28;20050;-69
2021/09/29 09:33:03;;;;;;;3.53;1.60;;;;;;;13.82;100.00;101001.81;5023892;28;20437;-72
2021/09/29 09:35:42;;;;;;;5.28;1.50;;;;;;;14.75;100.00;101013.19;5024007;28;20135;-70
2021/09/29 09:38:12;;;;;;;2.53;1.50;;;;;;;13.91;100.00;101006.94;5027412;28;20481;-70
2021/09/29 09:40:41;;;;;;;3.45;1.60;;;;;;;13.90;100.00;101015.16;5025514;28;20071;-70
2021/09/29 09:43:08;;;;;;;3.08;1.75;;;;;;;13.38;100.00;101011.31;5025093;28;20188;-69
2021/09/29 09:45:44;;;;;;;3.05;1.48;;;;;;;13.12;100.00;101025.84;5028069;28;20049;-70
2021/09/29 09:48:21;;;;;;;2.42;1.77;;;;;;;12.92;100.00;101033.47;5022971;28;20116;-70
2021/09/29 09:50:49;;;;;;;5.55;2.20;;;;;;;13.74;100.00;101024.19;5027376;28;20038;-73
2021/09/29 09:53:17;;;;;;;3.08;2.10;;;;;;;14.09;100.00;101029.94;5023846;28;20417;-72
2021/09/29 09:55:45;;;;;;;6.00;2.20;;;;;;;13.52;100.00;101021.28;5028346;28;20404;-73
2021/09/29 09:58:13;;;;;;;4.15;2.20;;;;;;;13.22;100.00;101033.69;5024897;28;20509;-71
2021/09/29 10:00:41;;;;;;;2.58;1.95;;;;;;;13.40;100.00;101036.16;5026244;28;20445;-71
2021/09/29 10:03:11;;;;;;;2.80;2.00;;;;;;;14.40;100.00;101027.16;5025180;28;20064;-71
2021/09/29 10:05:43;;;;;;;2.65;1.85;;;;;;;15.01;100.00;101036.06;5028525;28;20125;-72
2021/09/29 10:08:15;;;;;;;4.97;1.73;;;;;;;14.65;100.00;101034.97;5025871;28;20329;-71
2021/09/29 10:10:55;;;;;;;2.78;1.55;;;;;;;14.25;100.00;101050.47;5010035;28;20341;-74
2021/09/29 10:13:42;;;;;;;3.22;1.50;;;;;;;14.55;100.00;101045.13;5025325;28;20045;-71
2021/09/29 10:27:24;;;;;;;1.10;1.00;;;;;;;15.19;100.00;101058.03;5032470;28;20358;-73
2021/09/29 10:29:59;;;;;;;2.97;1.33;;;;;;;14.40;100.00;101083.56;5030557;28;20122;-73
2021/09/29 10:32:28;;;;;;;;;;;;;;;15.61;100.00;101077.16;5026319;28;20116;-74
2021/09/29 10:35:04;;;;;;;2.67;1.60;;;;;;;15.61;100.00;101078.00;5032922;28;20324;-74
2021/09/29 10:37:55;;;;;;;2.28;1.50;;;;;;;15.84;100.00;101087.78;5028598;28;20076;-73
2021/09/29 10:40:51;;;;;;;3.35;1.33;;;;;;;15.72;100.00;101090.13;5029406;28;20053;-73
2021/09/29 10:43:22;;;;;;;4.30;1.58;;;;;;;14.80;100.00;101086.06;5029167;28;20046;-73
2021/09/29 10:46:06;;;;;;;1.20;1.02;;;;;;;15.85;100.00;101092.16;5025887;28;20638;-74
2021/09/29 10:48:51;;;;;;;1.40;1.00;;;;;;;15.47;100.00;101100.41;5027705;28;20096;-73
2021/09/29 11:05:49;;;;;;;2.33;1.30;;;;;;;13.82;100.00;101125.28;5030046;28;20466;-71
2021/09/29 11:28:01;;;;;;;1.13;0.88;;;;;;;15.31;100.00;101163.34;5027048;28;19999;-71
2021/09/29 11:30:33;;;;;;;3.88;0.90;;;;;;;15.55;100.00;101164.88;5024752;28;20038;-71
2021/09/29 11:33:04;;;;;;;1.23;1.10;;;;;;;15.57;100.00;101178.16;5027748;28;20389;-71
2021/09/29 11:35:48;;;;;;;4.13;1.30;;;;;;;16.03;100.00;101167.13;5029910;28;20050;-72
2021/09/29 11:49:50;;;;;;;5.07;0.85;;;;;;;13.68;100.00;101178.69;5025178;28;20565;-69
2021/09/29 12:09:11;;;;;;;1.98;0.93;;;;;;;15.84;100.00;101220.56;5025911;28;20297;-70
2021/09/29 12:11:45;;;;;;;1.25;0.75;;;;;;;16.03;100.00;101222.84;5023349;28;20045;-71
2021/09/29 12:14:14;;;;;;;1.25;0.90;;;;;;;15.76;100.00;101223.34;5025926;28;20061;-71
2021/09/29 12:16:45;;;;;;;3.42;0.90;;;;;;;17.26;100.00;101207.41;5027156;28;20377;-72
2021/09/29 12:19:21;;;;;;;1.20;0.68;;;;;;;16.23;100.00;101202.38;5026645;28;20318;-70
2021/09/29 12:21:50;;;;;;;1.25;0.70;;;;;;;16.76;100.00;101209.28;5024620;28;20037;-69
2021/09/29 12:24:31;;;;;;;1.98;0.90;;;;;;;17.19;100.00;101217.31;5026981;28;20095;-70
2021/09/29 12:27:00;;;;;;;3.92;1.00;;;;;;;15.82;100.00;101224.50;5030453;28;20060;-70
2021/09/29 12:29:35;;;;;;;1.15;0.70;;;;;;;17.12;100.00;101227.22;5028581;28;20073;-70
2021/09/29 12:32:20;;;;;;;2.92;1.20;;;;;;;14.28;100.00;101225.50;5024532;28;20053;-70
2021/09/29 12:35:03;;;;;;;1.70;0.90;;;;;;;15.97;100.00;101246.00;5026210;28;20049;-72
2021/09/29 12:37:31;;;;;;;1.42;1.20;;;;;;;15.83;100.00;101243.16;5026677;28;20037;-72
2021/09/29 12:39:59;;;;;;;1.83;0.90;;;;;;;14.40;100.00;101235.84;5028106;28;20152;-69
2021/09/29 12:42:39;;;;;;;1.73;0.60;;;;;;;15.14;100.00;101232.63;5023307;28;20041;-71
2021/09/29 12:45:09;;;;;;;8.73;1.00;;;;;;;14.16;100.00;101255.66;5028118;28;20452;-70
2021/09/29 12:47:42;;;;;;;2.00;1.13;;;;;;;13.69;100.00;101243.94;5025720;28;20420;-71
2021/09/29 12:50:15;;;;;;;2.55;0.60;;;;;;;13.23;100.00;101256.09;5028958;28;20045;-70
2021/09/29 12:52:55;;;;;;;2.33;0.90;;;;;;;13.17;100.00;101277.38;5024952;28;20073;-70
2021/09/29 12:55:31;;;;;;;2.95;0.90;;;;;;;14.68;100.00;101275.69;5025447;28;20049;-69
2021/09/29 12:57:59;;;;;;;2.10;0.98;;;;;;;13.05;100.00;101282.25;5027377;28;20469;-73
2021/09/29 13:00:27;;;;;;;4.90;1.33;;;;;;;13.20;100.00;101280.56;5027368;28;20100;-73
2021/09/29 13:02:58;;;;;;;3.85;1.10;;;;;;;12.78;100.00;101281.56;5023643;28;20045;-70
2021/09/29 13:05:27;;;;;;;4.60;1.80;;;;;;;12.64;100.00;101284.91;5027022;28;20299;-70
2021/09/29 13:07:55;;;;;;;4.25;1.88;;;;;;;12.73;100.00;101292.81;5026942;28;20046;-71
2021/09/29 13:10:23;;;;;;;3.53;1.40;;;;;;;13.72;100.00;101298.13;5027383;28;20064;-70
2021/09/29 13:12:52;;;;;;;1.30;1.20;;;;;;;13.93;100.00;101305.59;5028190;28;20049;-70